EST,Max TemperatureF,Mean TemperatureF,Min TemperatureF,Max Dew PointF,MeanDew PointF,Min DewpointF,Max Humidity, Mean Humidity, Min Humidity, Max Sea Level PressureIn, Mean Sea Level PressureIn, Min Sea Level PressureIn, Max VisibilityMiles, Mean VisibilityMiles, Min VisibilityMiles, Max Wind SpeedMPH, Mean Wind SpeedMPH, Max Gust SpeedMPH,PrecipitationIn, CloudCover, Events, WindDirDegrees
2013-12-1,55,45,35,41,35,28,93,67,44,30.33,30.18,30.03,10,10,10,5,1,,0.00,3,,255
2013-12-2,53,48,42,52,47,41,100,97,87,30.02,29.91,29.82,10,5,0,5,0,,0.00,8,Rain,0
2013-12-3,59,54,48,59,54,48,100,100,94,29.90,29.86,29.83,7,3,0,5,0,,0.00,8,Fog-Rain,163
2013-12-4,71,65,59,64,62,59,100,93,69,30.04,29.97,29.90,10,6,0,9,2,,0.00,7,Fog-Rain,181
2013-12-5,71,68,64,68,67,64,100,98,88,30.10,30.04,30.00,10,6,1,8,3,16,0.00,8,Rain-Thunderstorm,191
2013-12-6,75,64,53,68,65,52,100,91,69,30.11,30.03,30.00,10,10,7,24,6,37,0.00,8,Rain-Thunderstorm,201
2013-12-7,53,47,41,52,40,37,100,90,76,30.31,30.25,30.11,10,10,4,16,10,18,0.00,8,Rain,353
2013-12-8,48,44,41,46,45,41,100,100,93,30.26,30.20,30.15,7,2,1,10,4,16,0.00,8,Rain,114
2013-12-9,51,46,42,50,47,43,100,99,93,30.16,30.11,30.02,10,8,2,9,3,,0.00,8,Rain,50
2013-12-10,50,40,30,50,39,30,100,88,57,30.34,30.19,29.98,10,9,0,18,5,25,0.00,4,Fog-Rain,321
2013-12-11,55,40,26,34,29,27,100,68,33,30.43,30.37,30.33,10,10,10,9,2,,0.00,1,,328
2013-12-12,44,37,30,32,23,14,93,63,31,30.47,30.41,30.37,10,10,10,16,6,20,0.00,0,,342
2013-12-13,55,40,26,32,23,18,80,52,23,30.38,30.27,30.14,10,10,10,7,3,,0.00,0,,102
2013-12-14,57,52,46,57,48,30,100,89,50,30.16,29.94,29.82,10,8,2,13,3,17,0.00,7,Rain,160
2013-12-15,51,42,32,48,34,30,100,88,81,30.22,30.08,29.88,10,10,4,15,9,23,0.00,8,Rain,324
2013-12-16,55,42,30,32,31,28,100,75,36,30.28,30.22,30.19,10,9,5,10,3,16,0.00,0,,299
2013-12-17,60,46,33,36,33,32,93,59,34,30.24,30.19,30.13,10,10,10,13,3,20,0.00,0,,267
2013-12-18,53,42,32,36,25,16,87,59,22,30.36,30.29,30.22,10,10,10,13,6,17,0.00,0,,337
2013-12-19,62,45,28,32,28,25,93,60,24,30.33,30.25,30.19,10,10,10,8,1,,0.00,0,,174
2013-12-20,60,48,35,52,42,32,94,75,55,30.22,30.16,30.12,10,10,10,7,1,,0.00,5,,158
2013-12-21,69,60,51,66,61,52,100,94,83,30.11,29.99,29.92,10,6,0,16,5,25,0.00,7,Fog-Rain,163
2013-12-22,69,61,53,66,58,54,100,97,83,30.11,30.00,29.90,10,8,2,15,7,22,0.00,8,Rain-Thunderstorm,177
2013-12-23,53,43,33,54,43,30,100,90,75,30.31,30.20,30.07,10,10,3,15,5,23,0.00,8,Rain,328
2013-12-24,39,34,28,30,25,19,93,73,49,30.44,30.37,30.30,10,10,10,16,10,21,0.00,0,,338
2013-12-25,46,36,26,32,24,19,87,66,46,30.44,30.37,30.31,10,10,10,8,3,16,0.00,1,,90
2013-12-26,53,42,30,30,28,25,93,69,37,30.37,30.32,30.28,10,10,10,8,2,,0.00,1,,348
2013-12-27,51,40,28,34,31,27,100,78,47,30.44,30.38,30.32,10,10,10,7,1,,0.00,0,,34
2013-12-28,44,38,32,41,35,30,100,85,61,30.38,30.23,29.95,10,9,2,12,2,22,0.00,6,Rain,91
2013-12-29,51,44,37,45,42,37,100,94,76,30.08,29.97,29.87,10,9,2,10,5,20,0.00,6,Rain,309
2013-12-30,50,42,35,45,41,36,100,93,71,30.22,30.14,30.06,10,10,7,8,3,,0.00,4,Rain,312
2013-12-31,42,37,32,39,32,28,100,81,57,30.39,30.32,30.22,10,10,7,12,5,16,0.00,2,,327